Time,TemperatureF,DewpointF,PressureIn,WindDirection,WindDirectionDegrees,WindSpeedMPH,WindSpeedGustMPH,Humidity,HourlyPrecipIn,Conditions,Clouds,dailyrainin,SolarRadiationWatts/m^2,SoftwareType,DateUTC
2013-11-27 00:00:00,22.3,19.8,30.00,South,187,0.0,0.0,90,0.00,,,0.00,0,WeatherCatV1.23B16,2013-11-27 05:00:00,
2013-11-27 00:01:00,22.4,19.9,30.00,South,187,0.0,0.0,90,0.00,,,0.00,0,WeatherCatV1.23B16,2013-11-27 05:01:00,
2013-11-27 00:06:00,22.4,20.2,30.00,South,187,0.0,0.0,91,0.00,,,0.00,0,WeatherCatV1.23B16,2013-11-27 05:06:00,
2013-11-27 00:11:00,22.4,20.2,30.00,South,187,0.0,0.0,91,0.00,,,0.00,0,WeatherCatV1.23B16,2013-11-27 05:11:00,
2013-11-27 00:16:00,22.4,20.2,30.00,South,187,0.0,0.0,91,0.00,,,0.00,0,WeatherCatV1.23B16,2013-11-27 05:16:00,
2013-11-27 00:21:00,22.3,20.1,29.99,South,187,1.0,2.0,91,0.00,,,0.00,0,WeatherCatV1.23B16,2013-11-27 05:21:00,
2013-11-27 00:26:00,22.2,20.0,30.00,North,9,0.0,1.0,91,0.00,,,0.00,0,WeatherCatV1.23B16,2013-11-27 05:26:00,
2013-11-27 00:31:00,22.0,19.8,30.00,NE,40,0.0,0.0,91,0.00,,,0.00,0,WeatherCatV1.23B16,2013-11-27 05:31:00,
2013-11-27 00:36:00,22.0,19.8,30.00,NE,40,0.0,2.0,91,0.00,,,0.00,0,WeatherCatV1.23B16,2013-11-27 05:36:00,
2013-11-27 00:41:00,21.9,19.7,29.99,NE,40,0.0,0.0,91,0.00,,,0.00,0,WeatherCatV1.23B16,2013-11-27 05:41:00,
2013-11-27 00:46:00,21.8,19.6,30.00,NE,40,0.0,0.0,91,0.00,,,0.00,0,WeatherCatV1.23B16,2013-11-27 05:46:00,
2013-11-27 00:51:00,21.6,19.6,30.00,North,350,2.0,4.0,92,0.00,,,0.00,0,WeatherCatV1.23B16,2013-11-27 05:51:00,
2013-11-27 00:56:00,21.3,19.1,30.00,North,10,0.0,3.0,91,0.00,,,0.00,0,WeatherCatV1.23B16,2013-11-27 05:56:00,
2013-11-27 01:01:00,21.2,19.0,30.00,NNW,342,0.0,4.0,91,0.00,,,0.00,0,WeatherCatV1.23B16,2013-11-27 06:01:00,
2013-11-27 01:06:00,21.1,19.1,30.00,NNE,26,3.0,4.0,92,0.00,,,0.00,0,WeatherCatV1.23B16,2013-11-27 06:06:00,
2013-11-27 01:11:00,21.1,19.1,30.00,NNW,348,3.0,4.0,92,0.00,,,0.00,0,WeatherCatV1.23B16,2013-11-27 06:11:00,
2013-11-27 01:16:00,20.8,18.9,30.00,NNW,329,1.0,2.0,92,0.00,,,0.00,0,WeatherCatV1.23B16,2013-11-27 06:16:00,
2013-11-27 01:21:00,20.5,18.3,30.01,NNE,31,1.0,3.0,91,0.00,,,0.00,0,WeatherCatV1.23B16,2013-11-27 06:21:00,
2013-11-27 01:26:00,20.2,17.8,30.01,NNW,328,3.0,4.0,90,0.00,,,0.00,0,WeatherCatV1.23B16,2013-11-27 06:26:00,
2013-11-27 01:31:00,19.8,17.4,30.01,NNW,344,0.0,3.0,90,0.00,,,0.00,0,WeatherCatV1.23B16,2013-11-27 06:31:00,
2013-11-27 01:36:00,19.4,16.7,30.01,North,0,1.0,4.0,89,0.00,,,0.00,0,WeatherCatV1.23B16,2013-11-27 06:36:00,
2013-11-27 01:41:00,18.9,15.7,30.00,NNW,348,0.0,6.0,87,0.00,,,0.00,0,WeatherCatV1.23B16,2013-11-27 06:41:00,
2013-11-27 01:46:00,18.6,15.1,30.01,NNW,332,0.0,3.0,86,0.00,,,0.00,0,WeatherCatV1.23B16,2013-11-27 06:46:00,
2013-11-27 01:51:00,18.2,14.7,30.01,WSW,255,0.0,2.0,86,0.00,,,0.00,0,WeatherCatV1.23B16,2013-11-27 06:51:00,
2013-11-27 01:56:00,18.1,14.6,30.02,ENE,61,0.0,2.0,86,0.00,,,0.00,0,WeatherCatV1.23B16,2013-11-27 06:56:00,
2013-11-27 02:01:00,18.0,14.5,30.02,North,355,0.0,2.0,86,0.00,,,0.00,0,WeatherCatV1.23B16,2013-11-27 07:01:00,
2013-11-27 02:06:00,17.9,14.4,30.02,NW,321,0.0,1.0,86,0.00,,,0.00,0,WeatherCatV1.23B16,2013-11-27 07:06:00,
2013-11-27 02:11:00,17.8,14.3,30.02,NW,321,0.0,0.0,86,0.00,,,0.00,0,WeatherCatV1.23B16,2013-11-27 07:11:00,
2013-11-27 02:16:00,17.7,14.2,30.02,NNW,330,0.0,4.0,86,0.00,,,0.00,0,WeatherCatV1.23B16,2013-11-27 07:16:00,
2013-11-27 02:21:00,17.5,14.0,30.02,SW,225,0.0,3.0,86,0.00,,,0.00,0,WeatherCatV1.23B16,2013-11-27 07:21:00,
2013-11-27 02:26:00,17.4,13.9,30.02,NW,311,0.0,0.0,86,0.00,,,0.00,0,WeatherCatV1.23B16,2013-11-27 07:26:00,
2013-11-27 02:31:00,17.3,13.9,30.02,NW,311,0.0,0.0,86,0.00,,,0.00,0,WeatherCatV1.23B16,2013-11-27 07:31:00,
2013-11-27 02:36:00,17.1,13.6,30.03,NW,311,0.0,0.0,86,0.00,,,0.00,0,WeatherCatV1.23B16,2013-11-27 07:36:00,
2013-11-27 02:41:00,16.9,13.2,30.03,NW,311,0.0,0.0,85,0.00,,,0.00,0,WeatherCatV1.23B16,2013-11-27 07:41:00,
2013-11-27 02:46:00,16.7,13.3,30.03,NW,311,0.0,1.0,86,0.00,,,0.00,0,WeatherCatV1.23B16,2013-11-27 07:46:00,
2013-11-27 02:51:00,16.6,13.2,30.03,SW,219,1.0,1.0,86,0.00,,,0.00,0,WeatherCatV1.23B16,2013-11-27 07:51:00,
2013-11-27 02:56:00,16.4,12.7,30.03,SW,228,0.0,4.0,85,0.00,,,0.00,0,WeatherCatV1.23B16,2013-11-27 07:56:00,
2013-11-27 03:01:00,16.3,12.6,30.03,SW,227,2.0,2.0,85,0.00,,,0.00,0,WeatherCatV1.23B16,2013-11-27 08:01:00,
2013-11-27 03:06:00,16.2,12.5,30.03,SW,229,3.0,3.0,85,0.00,,,0.00,0,WeatherCatV1.23B16,2013-11-27 08:06:00,
2013-11-27 03:11:00,16.1,12.4,30.03,SW,229,4.0,6.0,85,0.00,,,0.00,0,WeatherCatV1.23B16,2013-11-27 08:11:00,
2013-11-27 03:16:00,16.0,12.3,30.03,WSW,242,0.0,6.0,85,0.00,,,0.00,0,WeatherCatV1.23B16,2013-11-27 08:16:00,
2013-11-27 03:21:00,15.9,11.9,30.03,SW,222,3.0,5.0,84,0.00,,,0.00,0,WeatherCatV1.23B16,2013-11-27 08:21:00,
2013-11-27 03:26:00,15.8,11.8,30.03,SSW,198,0.0,3.0,84,0.00,,,0.00,0,WeatherCatV1.23B16,2013-11-27 08:26:00,
2013-11-27 03:31:00,15.6,11.6,30.03,SW,228,0.0,1.0,84,0.00,,,0.00,0,WeatherCatV1.23B16,2013-11-27 08:31:00,
2013-11-27 03:36:00,15.4,11.4,30.03,WNW,292,0.0,1.0,84,0.00,,,0.00,0,WeatherCatV1.23B16,2013-11-27 08:36:00,
2013-11-27 03:41:00,15.2,11.2,30.03,SW,227,0.0,4.0,84,0.00,,,0.00,0,WeatherCatV1.23B16,2013-11-27 08:41:00,
2013-11-27 03:46:00,15.0,10.8,30.03,SW,223,5.0,6.0,83,0.00,,,0.00,0,WeatherCatV1.23B16,2013-11-27 08:46:00,
2013-11-27 03:51:00,14.9,10.7,30.04,WNW,283,1.0,3.0,83,0.00,,,0.00,0,WeatherCatV1.23B16,2013-11-27 08:51:00,
2013-11-27 03:56:00,14.7,10.5,30.04,SW,225,0.0,4.0,83,0.00,,,0.00,0,WeatherCatV1.23B16,2013-11-27 08:56:00,
2013-11-27 04:01:00,14.5,10.3,30.04,SSW,210,4.0,7.0,83,0.00,,,0.00,0,WeatherCatV1.23B16,2013-11-27 09:01:00,
2013-11-27 04:06:00,14.3,9.8,30.04,SSW,206,2.0,9.0,82,0.00,,,0.00,0,WeatherCatV1.23B16,2013-11-27 09:06:00,
2013-11-27 04:11:00,14.1,9.6,30.04,North,5,2.0,8.0,82,0.00,,,0.00,0,WeatherCatV1.23B16,2013-11-27 09:11:00,
2013-11-27 04:16:00,13.8,9.3,30.04,ESE,110,1.0,3.0,82,0.00,,,0.00,0,WeatherCatV1.23B16,2013-11-27 09:16:00,
2013-11-27 04:21:00,13.6,9.1,30.04,NNE,30,0.0,5.0,82,0.00,,,0.00,0,WeatherCatV1.23B16,2013-11-27 09:21:00,
2013-11-27 04:26:00,13.4,8.9,30.04,South,182,2.0,6.0,82,0.00,,,0.00,0,WeatherCatV1.23B16,2013-11-27 09:26:00,
2013-11-27 04:31:00,13.2,8.8,30.05,West,270,2.0,5.0,82,0.00,,,0.00,0,WeatherCatV1.23B16,2013-11-27 09:31:00,
2013-11-27 04:36:00,13.1,8.7,30.05,West,269,1.0,3.0,82,0.00,,,0.00,0,WeatherCatV1.23B16,2013-11-27 09:36:00,
2013-11-27 04:41:00,12.9,8.5,30.05,SW,225,0.0,3.0,82,0.00,,,0.00,0,WeatherCatV1.23B16,2013-11-27 09:41:00,
2013-11-27 04:46:00,12.7,8.3,30.05,SW,219,0.0,5.0,82,0.00,,,0.00,0,WeatherCatV1.23B16,2013-11-27 09:46:00,
2013-11-27 04:51:00,12.6,8.2,30.05,WSW,254,1.0,6.0,82,0.00,,,0.00,0,WeatherCatV1.23B16,2013-11-27 09:51:00,
2013-11-27 04:56:00,12.6,8.2,30.05,SW,223,0.0,1.0,82,0.00,,,0.00,0,WeatherCatV1.23B16,2013-11-27 09:56:00,
2013-11-27 05:01:00,12.5,8.1,30.05,SW,227,0.0,0.0,82,0.00,,,0.00,0,WeatherCatV1.23B16,2013-11-27 10:01:00,
2013-11-27 05:06:00,12.5,8.1,30.05,SW,232,0.0,2.0,82,0.00,,,0.00,0,WeatherCatV1.23B16,2013-11-27 10:06:00,
2013-11-27 05:11:00,12.4,7.7,30.06,West,279,0.0,0.0,81,0.00,,,0.00,0,WeatherCatV1.23B16,2013-11-27 10:11:00,
2013-11-27 05:16:00,12.3,7.6,30.06,WNW,303,0.0,1.0,81,0.00,,,0.00,0,WeatherCatV1.23B16,2013-11-27 10:16:00,
2013-11-27 05:21:00,12.3,7.6,30.06,NW,314,0.0,2.0,81,0.00,,,0.00,0,WeatherCatV1.23B16,2013-11-27 10:21:00,
2013-11-27 05:26:00,12.3,7.6,30.06,North,5,2.0,2.0,81,0.00,,,0.00,0,WeatherCatV1.23B16,2013-11-27 10:26:00,
2013-11-27 05:31:00,12.2,7.5,30.06,North,0,2.0,3.0,81,0.00,,,0.00,0,WeatherCatV1.23B16,2013-11-27 10:31:00,
2013-11-27 05:37:00,12.1,7.4,30.07,WSW,250,1.0,4.0,81,0.00,,,0.00,0,WeatherCatV1.23B16,2013-11-27 10:37:00,
2013-11-27 05:42:00,12.0,7.3,30.07,SSW,210,0.0,3.0,81,0.00,,,0.00,0,WeatherCatV1.23B16,2013-11-27 10:42:00,
2013-11-27 05:47:00,12.2,7.8,30.07,SW,224,0.0,4.0,82,0.00,,,0.00,0,WeatherCatV1.23B16,2013-11-27 10:47:00,
2013-11-27 05:52:00,12.3,7.9,30.07,SSW,211,6.0,9.0,82,0.00,,,0.00,0,WeatherCatV1.23B16,2013-11-27 10:52:00,
2013-11-27 05:57:00,12.3,7.9,30.07,SSW,199,2.0,10.0,82,0.00,,,0.00,0,WeatherCatV1.23B16,2013-11-27 10:57:00,
2013-11-27 06:02:00,12.4,8.2,30.07,SW,223,0.0,3.0,83,0.00,,,0.00,0,WeatherCatV1.23B16,2013-11-27 11:02:00,
2013-11-27 06:07:00,12.4,8.0,30.08,WSW,247,1.0,5.0,82,0.00,,,0.00,0,WeatherCatV1.23B16,2013-11-27 11:07:00,
2013-11-27 06:12:00,12.4,8.0,30.08,SW,228,2.0,7.0,82,0.00,,,0.00,0,WeatherCatV1.23B16,2013-11-27 11:12:00,
2013-11-27 06:17:00,12.4,7.7,30.08,WNW,298,1.0,4.0,81,0.00,,,0.00,0,WeatherCatV1.23B16,2013-11-27 11:17:00,
2013-11-27 06:22:00,12.4,7.7,30.08,SW,221,8.0,8.0,81,0.00,,,0.00,0,WeatherCatV1.23B16,2013-11-27 11:22:00,
2013-11-27 06:27:00,12.5,7.8,30.08,SW,227,3.0,7.0,81,0.00,,,0.00,0,WeatherCatV1.23B16,2013-11-27 11:27:00,
2013-11-27 06:32:00,12.6,7.9,30.08,SSW,210,4.0,7.0,81,0.00,,,0.00,0,WeatherCatV1.23B16,2013-11-27 11:32:00,
2013-11-27 06:37:00,12.8,8.1,30.09,WSW,243,2.0,5.0,81,0.00,,,0.00,0,WeatherCatV1.23B16,2013-11-27 11:37:00,
2013-11-27 06:42:00,12.9,8.2,30.08,SW,231,4.0,6.0,81,0.00,,,0.00,0,WeatherCatV1.23B16,2013-11-27 11:42:00,
2013-11-27 06:47:00,13.0,8.3,30.09,WSW,246,7.0,7.0,81,0.00,,,0.00,0,WeatherCatV1.23B16,2013-11-27 11:47:00,
2013-11-27 06:52:00,13.2,8.5,30.09,SW,217,1.0,4.0,81,0.00,,,0.00,0,WeatherCatV1.23B16,2013-11-27 11:52:00,
2013-11-27 06:57:00,13.3,8.6,30.09,SW,215,2.0,7.0,81,0.00,,,0.00,0,WeatherCatV1.23B16,2013-11-27 11:57:00,
2013-11-27 07:02:00,13.3,8.3,30.09,WSW,244,2.0,9.0,80,0.00,,,0.00,0,WeatherCatV1.23B16,2013-11-27 12:02:00,
2013-11-27 07:07:00,13.4,8.4,30.09,WSW,238,2.0,8.0,80,0.00,,,0.00,0,WeatherCatV1.23B16,2013-11-27 12:07:00,
2013-11-27 07:12:00,13.5,8.8,30.09,WSW,245,6.0,8.0,81,0.00,,,0.00,0,WeatherCatV1.23B16,2013-11-27 12:12:00,
2013-11-27 07:17:00,13.7,9.0,30.10,West,274,2.0,9.0,81,0.00,,,0.00,0,WeatherCatV1.23B16,2013-11-27 12:17:00,
2013-11-27 07:22:00,13.7,9.0,30.10,SW,228,6.0,8.0,81,0.00,,,0.00,0,WeatherCatV1.23B16,2013-11-27 12:22:00,
2013-11-27 07:27:00,13.7,9.0,30.10,SW,236,1.0,6.0,81,0.00,,,0.00,0,WeatherCatV1.23B16,2013-11-27 12:27:00,
2013-11-27 07:32:00,13.7,9.0,30.10,SW,224,4.0,7.0,81,0.00,,,0.00,0,WeatherCatV1.23B16,2013-11-27 12:32:00,
2013-11-27 07:37:00,13.8,9.1,30.10,WSW,242,2.0,6.0,81,0.00,,,0.00,0,WeatherCatV1.23B16,2013-11-27 12:37:00,
2013-11-27 07:42:00,13.8,8.8,30.10,SW,221,4.0,4.0,80,0.00,,,0.00,0,WeatherCatV1.23B16,2013-11-27 12:42:00,
2013-11-27 07:47:00,13.8,8.8,30.10,NW,315,0.0,5.0,80,0.00,,,0.00,0,WeatherCatV1.23B16,2013-11-27 12:47:00,
2013-11-27 07:52:00,13.9,8.9,30.10,SW,219,3.0,6.0,80,0.00,,,0.00,0,WeatherCatV1.23B16,2013-11-27 12:52:00,
2013-11-27 07:57:00,13.9,8.9,30.10,WNW,294,0.0,6.0,80,0.00,,,0.00,0,WeatherCatV1.23B16,2013-11-27 12:57:00,
2013-11-27 08:02:00,14.0,9.0,30.11,SSW,207,4.0,9.0,80,0.00,,,0.00,0,WeatherCatV1.23B16,2013-11-27 13:02:00,
2013-11-27 08:07:00,14.1,9.1,30.11,SW,216,3.0,4.0,80,0.00,,,0.00,0,WeatherCatV1.23B16,2013-11-27 13:07:00,
2013-11-27 08:12:00,14.1,9.1,30.11,SW,225,6.0,8.0,80,0.00,,,0.00,5,WeatherCatV1.23B16,2013-11-27 13:12:00,
2013-11-27 08:17:00,14.2,9.2,30.12,SW,232,4.0,5.0,80,0.00,,,0.00,7,WeatherCatV1.23B16,2013-11-27 13:17:00,
2013-11-27 08:22:00,14.2,9.2,30.12,SW,221,0.0,5.0,80,0.00,,,0.00,9,WeatherCatV1.23B16,2013-11-27 13:22:00,
2013-11-27 08:27:00,14.4,9.4,30.12,South,186,1.0,5.0,80,0.00,,,0.00,9,WeatherCatV1.23B16,2013-11-27 13:27:00,
2013-11-27 08:32:00,14.5,9.5,30.12,SW,225,3.0,4.0,80,0.00,,,0.00,11,WeatherCatV1.23B16,2013-11-27 13:32:00,
2013-11-27 08:37:00,14.6,9.6,30.12,SW,232,0.0,6.0,80,0.00,,,0.00,11,WeatherCatV1.23B16,2013-11-27 13:37:00,
2013-11-27 08:42:00,14.8,9.8,30.12,WSW,240,2.0,6.0,80,0.00,,,0.00,12,WeatherCatV1.23B16,2013-11-27 13:42:00,
2013-11-27 08:47:00,15.0,10.0,30.12,SSW,198,2.0,5.0,80,0.00,,,0.00,12,WeatherCatV1.23B16,2013-11-27 13:47:00,
2013-11-27 08:52:00,15.2,9.9,30.12,WSW,244,4.0,8.0,79,0.00,,,0.00,14,WeatherCatV1.23B16,2013-11-27 13:52:00,
2013-11-27 08:57:00,15.5,10.2,30.12,SSW,197,10.0,10.0,79,0.00,,,0.00,14,WeatherCatV1.23B16,2013-11-27 13:57:00,
2013-11-27 09:02:00,15.7,10.4,30.12,SW,224,3.0,7.0,79,0.00,,,0.00,14,WeatherCatV1.23B16,2013-11-27 14:02:00,
2013-11-27 09:07:00,15.9,10.6,30.12,SW,222,6.0,8.0,79,0.00,,,0.00,16,WeatherCatV1.23B16,2013-11-27 14:07:00,
2013-11-27 09:12:00,16.1,10.5,30.13,WSW,246,2.0,10.0,78,0.00,,,0.00,16,WeatherCatV1.23B16,2013-11-27 14:12:00,
2013-11-27 09:17:00,16.3,10.7,30.12,NNW,343,2.0,9.0,78,0.00,,,0.00,16,WeatherCatV1.23B16,2013-11-27 14:17:00,
2013-11-27 09:22:00,16.5,10.6,30.13,WSW,241,3.0,9.0,77,0.00,,,0.00,18,WeatherCatV1.23B16,2013-11-27 14:22:00,
2013-11-27 09:27:00,16.6,10.7,30.12,WSW,246,3.0,6.0,77,0.00,,,0.00,18,WeatherCatV1.23B16,2013-11-27 14:27:00,
2013-11-27 09:32:00,16.8,10.9,30.12,SW,221,4.0,7.0,77,0.00,,,0.00,21,WeatherCatV1.23B16,2013-11-27 14:32:00,
2013-11-27 09:37:00,17.0,10.8,30.13,SSW,209,5.0,9.0,76,0.00,,,0.00,23,WeatherCatV1.23B16,2013-11-27 14:37:00,
2013-11-27 09:42:00,17.1,10.9,30.13,SW,234,4.0,4.0,76,0.00,,,0.00,25,WeatherCatV1.23B16,2013-11-27 14:42:00,
2013-11-27 09:47:00,17.2,11.0,30.12,SW,229,2.0,7.0,76,0.00,,,0.00,26,WeatherCatV1.23B16,2013-11-27 14:47:00,
2013-11-27 09:52:00,17.4,11.1,30.12,SW,231,5.0,5.0,76,0.00,,,0.00,30,WeatherCatV1.23B16,2013-11-27 14:52:00,
2013-11-27 09:57:00,17.5,11.2,30.12,SW,235,4.0,8.0,76,0.00,,,0.00,32,WeatherCatV1.23B16,2013-11-27 14:57:00,
2013-11-27 10:02:00,17.7,11.1,30.12,South,188,7.0,7.0,75,0.00,,,0.00,35,WeatherCatV1.23B16,2013-11-27 15:02:00,
2013-11-27 10:07:00,17.8,11.2,30.13,WNW,286,0.0,13.0,75,0.00,,,0.00,40,WeatherCatV1.23B16,2013-11-27 15:07:00,
2013-11-27 10:12:00,17.9,11.3,30.13,WSW,241,0.0,2.0,75,0.00,,,0.00,37,WeatherCatV1.23B16,2013-11-27 15:12:00,
2013-11-27 10:17:00,18.0,11.4,30.13,SW,236,4.0,6.0,75,0.00,,,0.00,35,WeatherCatV1.23B16,2013-11-27 15:17:00,
2013-11-27 10:22:00,18.1,11.5,30.13,NW,311,0.0,4.0,75,0.00,,,0.00,32,WeatherCatV1.23B16,2013-11-27 15:22:00,
2013-11-27 10:27:00,18.1,11.2,30.14,SSW,203,7.0,9.0,74,0.00,,,0.00,35,WeatherCatV1.23B16,2013-11-27 15:27:00,
2013-11-27 10:32:00,18.2,11.3,30.13,SSW,213,8.0,10.0,74,0.00,,,0.00,30,WeatherCatV1.23B16,2013-11-27 15:32:00,
2013-11-27 10:37:00,18.2,11.3,30.14,WSW,238,3.0,7.0,74,0.00,,,0.00,35,WeatherCatV1.23B16,2013-11-27 15:37:00,
2013-11-27 10:42:00,18.3,11.4,30.13,SSW,212,3.0,8.0,74,0.00,,,0.00,32,WeatherCatV1.23B16,2013-11-27 15:42:00,
2013-11-27 10:47:00,18.4,11.5,30.13,WNW,297,1.0,12.0,74,0.00,,,0.00,33,WeatherCatV1.23B16,2013-11-27 15:47:00,
2013-11-27 10:52:00,18.5,11.6,30.13,WSW,244,6.0,8.0,74,0.00,,,0.00,28,WeatherCatV1.23B16,2013-11-27 15:52:00,
2013-11-27 10:57:00,18.6,11.4,30.14,WSW,254,4.0,12.0,73,0.00,,,0.00,30,WeatherCatV1.23B16,2013-11-27 15:57:00,
2013-11-27 11:02:00,18.7,11.5,30.13,SW,230,6.0,7.0,73,0.00,,,0.00,40,WeatherCatV1.23B16,2013-11-27 16:02:00,
2013-11-27 11:07:00,18.8,11.3,30.13,NNW,343,2.0,7.0,72,0.00,,,0.00,32,WeatherCatV1.23B16,2013-11-27 16:07:00,
2013-11-27 11:12:00,18.9,11.7,30.13,West,261,2.0,4.0,73,0.00,,,0.00,35,WeatherCatV1.23B16,2013-11-27 16:12:00,
2013-11-27 11:17:00,19.1,11.6,30.14,WSW,240,2.0,6.0,72,0.00,,,0.00,35,WeatherCatV1.23B16,2013-11-27 16:17:00,
2013-11-27 11:22:00,19.3,11.8,30.12,SW,220,4.0,10.0,72,0.00,,,0.00,35,WeatherCatV1.23B16,2013-11-27 16:22:00,
2013-11-27 11:27:00,19.5,12.0,30.13,SW,236,6.0,6.0,72,0.00,,,0.00,37,WeatherCatV1.23B16,2013-11-27 16:27:00,
2013-11-27 11:32:00,19.6,11.8,30.12,WSW,237,1.0,4.0,71,0.00,,,0.00,35,WeatherCatV1.23B16,2013-11-27 16:32:00,
2013-11-27 11:37:00,19.8,11.9,30.13,SW,235,7.0,9.0,71,0.00,,,0.00,42,WeatherCatV1.23B16,2013-11-27 16:37:00,
2013-11-27 11:42:00,20.0,12.1,30.12,South,190,7.0,11.0,71,0.00,,,0.00,40,WeatherCatV1.23B16,2013-11-27 16:42:00,
2013-11-27 11:47:00,20.0,11.8,30.13,SW,214,5.0,6.0,70,0.00,,,0.00,49,WeatherCatV1.23B16,2013-11-27 16:47:00,
2013-11-27 11:52:00,20.3,12.1,30.12,SW,236,1.0,10.0,70,0.00,,,0.00,69,WeatherCatV1.23B16,2013-11-27 16:52:00,
2013-11-27 11:57:00,20.5,12.0,30.12,SE,130,2.0,5.0,69,0.00,,,0.00,56,WeatherCatV1.23B16,2013-11-27 16:57:00,
2013-11-27 12:02:00,20.6,11.7,30.12,WSW,251,3.0,10.0,68,0.00,,,0.00,51,WeatherCatV1.23B16,2013-11-27 17:02:00,
2013-11-27 12:07:00,20.7,11.8,30.11,SW,233,5.0,5.0,68,0.00,,,0.00,47,WeatherCatV1.23B16,2013-11-27 17:07:00,
2013-11-27 12:12:00,20.9,12.0,30.11,SW,233,0.0,6.0,68,0.00,,,0.00,70,WeatherCatV1.23B16,2013-11-27 17:12:00,
2013-11-27 12:17:00,21.1,12.2,30.11,West,266,3.0,8.0,68,0.00,,,0.00,86,WeatherCatV1.23B16,2013-11-27 17:17:00,
2013-11-27 12:22:00,21.2,12.3,30.11,SW,232,7.0,8.0,68,0.00,,,0.00,84,WeatherCatV1.23B16,2013-11-27 17:22:00,
2013-11-27 12:27:00,21.1,11.9,30.10,SW,215,5.0,10.0,67,0.00,,,0.00,69,WeatherCatV1.23B16,2013-11-27 17:27:00,
2013-11-27 12:32:00,21.0,11.8,30.11,SW,215,4.0,11.0,67,0.00,,,0.00,91,WeatherCatV1.23B16,2013-11-27 17:32:00,
2013-11-27 12:37:00,21.1,11.9,30.10,SW,216,6.0,8.0,67,0.00,,,0.00,149,WeatherCatV1.23B16,2013-11-27 17:37:00,
2013-11-27 12:42:00,21.3,12.1,30.10,WSW,237,3.0,11.0,67,0.00,,,0.00,141,WeatherCatV1.23B16,2013-11-27 17:42:00,
2013-11-27 12:47:00,21.4,12.2,30.11,SE,139,2.0,6.0,67,0.00,,,0.00,69,WeatherCatV1.23B16,2013-11-27 17:47:00,
2013-11-27 12:52:00,21.3,11.7,30.10,North,5,0.0,10.0,66,0.00,,,0.00,130,WeatherCatV1.23B16,2013-11-27 17:52:00,
2013-11-27 12:57:00,21.4,12.2,30.10,SSW,205,6.0,11.0,67,0.00,,,0.00,86,WeatherCatV1.23B16,2013-11-27 17:57:00,
2013-11-27 13:02:00,21.3,11.4,30.10,SSW,205,0.0,9.0,65,0.00,,,0.00,63,WeatherCatV1.23B16,2013-11-27 18:02:00,
2013-11-27 13:07:00,21.3,11.7,30.10,North,9,2.0,9.0,66,0.00,,,0.00,135,WeatherCatV1.23B16,2013-11-27 18:07:00,
2013-11-27 13:12:00,21.5,12.3,30.10,NNE,25,2.0,10.0,67,0.00,,,0.00,139,WeatherCatV1.23B16,2013-11-27 18:12:00,
2013-11-27 13:17:00,21.5,11.9,30.10,West,277,2.0,7.0,66,0.00,,,0.00,102,WeatherCatV1.23B16,2013-11-27 18:17:00,
2013-11-27 13:22:00,21.6,11.7,30.10,NW,311,6.0,10.0,65,0.00,,,0.00,70,WeatherCatV1.23B16,2013-11-27 18:22:00,
2013-11-27 13:27:00,21.5,11.2,30.10,NE,35,2.0,8.0,64,0.00,,,0.00,62,WeatherCatV1.23B16,2013-11-27 18:27:00,
2013-11-27 13:32:00,21.5,11.2,30.10,West,271,4.0,7.0,64,0.00,,,0.00,98,WeatherCatV1.23B16,2013-11-27 18:32:00,
2013-11-27 13:37:00,21.7,11.8,30.09,WSW,242,4.0,7.0,65,0.00,,,0.00,81,WeatherCatV1.23B16,2013-11-27 18:37:00,
2013-11-27 13:43:00,21.8,11.2,30.09,ESE,121,4.0,5.0,63,0.00,,,0.00,70,WeatherCatV1.23B16,2013-11-27 18:43:00,
2013-11-27 13:48:00,22.0,11.7,30.10,South,187,3.0,7.0,64,0.00,,,0.00,63,WeatherCatV1.23B16,2013-11-27 18:48:00,
2013-11-27 13:53:00,22.2,11.2,30.10,SW,230,2.0,6.0,62,0.00,,,0.00,127,WeatherCatV1.23B16,2013-11-27 18:53:00,
2013-11-27 13:56:00,22.3,11.6,30.10,WSW,251,4.0,7.0,63,0.00,,,0.00,148,WeatherCatV1.23B16,2013-11-27 18:56:00,
2013-11-27 14:01:00,22.3,11.6,30.10,WSW,242,5.0,8.0,63,0.00,,,0.00,139,WeatherCatV1.23B16,2013-11-27 19:01:00,
2013-11-27 14:06:00,22.4,12.1,30.10,NNE,17,1.0,5.0,64,0.00,,,0.00,104,WeatherCatV1.23B16,2013-11-27 19:06:00,
2013-11-27 14:11:00,22.3,12.0,30.10,SW,217,3.0,5.0,64,0.00,,,0.00,118,WeatherCatV1.23B16,2013-11-27 19:11:00,
2013-11-27 14:16:00,22.2,11.9,30.09,SSW,201,3.0,9.0,64,0.00,,,0.00,134,WeatherCatV1.23B16,2013-11-27 19:16:00,
2013-11-27 14:21:00,22.2,11.6,30.10,SW,216,1.0,9.0,63,0.00,,,0.00,111,WeatherCatV1.23B16,2013-11-27 19:21:00,
2013-11-27 14:26:00,22.1,11.5,30.10,SW,222,2.0,7.0,63,0.00,,,0.00,105,WeatherCatV1.23B16,2013-11-27 19:26:00,
2013-11-27 14:31:00,22.1,11.8,30.10,SW,223,6.0,7.0,64,0.00,,,0.00,104,WeatherCatV1.23B16,2013-11-27 19:31:00,
2013-11-27 14:36:00,22.1,11.5,30.10,SSW,205,2.0,8.0,63,0.00,,,0.00,88,WeatherCatV1.23B16,2013-11-27 19:36:00,
2013-11-27 14:41:00,22.0,11.4,30.10,NNW,334,1.0,10.0,63,0.00,,,0.00,83,WeatherCatV1.23B16,2013-11-27 19:41:00,
2013-11-27 14:46:00,22.0,11.4,30.10,SW,234,2.0,2.0,63,0.00,,,0.00,100,WeatherCatV1.23B16,2013-11-27 19:46:00,
2013-11-27 14:51:00,22.1,11.8,30.10,SW,220,3.0,7.0,64,0.00,,,0.00,81,WeatherCatV1.23B16,2013-11-27 19:51:00,
2013-11-27 14:56:00,22.2,11.9,30.10,SSW,203,3.0,4.0,64,0.00,,,0.00,84,WeatherCatV1.23B16,2013-11-27 19:56:00,
2013-11-27 15:01:00,22.1,11.5,30.10,North,11,1.0,8.0,63,0.00,,,0.00,49,WeatherCatV1.23B16,2013-11-27 20:01:00,
2013-11-27 15:06:00,22.0,11.4,30.10,SW,222,5.0,9.0,63,0.00,,,0.00,35,WeatherCatV1.23B16,2013-11-27 20:06:00,
2013-11-27 15:11:00,22.0,11.7,30.10,ENE,76,0.0,6.0,64,0.00,,,0.00,33,WeatherCatV1.23B16,2013-11-27 20:11:00,
2013-11-27 15:16:00,21.9,10.9,30.10,NNW,339,4.0,6.0,62,0.00,,,0.00,56,WeatherCatV1.23B16,2013-11-27 20:16:00,
2013-11-27 15:23:00,21.8,11.2,30.10,NNW,344,1.0,6.0,63,0.00,,,0.00,42,WeatherCatV1.23B16,2013-11-27 20:23:00,
2013-11-27 15:28:00,21.7,11.1,30.11,West,271,3.0,5.0,63,0.00,,,0.00,49,WeatherCatV1.23B16,2013-11-27 20:28:00,
2013-11-27 15:33:00,21.6,11.3,30.11,SW,227,2.0,7.0,64,0.00,,,0.00,47,WeatherCatV1.23B16,2013-11-27 20:33:00,
2013-11-27 15:38:00,21.6,11.7,30.11,SW,217,1.0,7.0,65,0.00,,,0.00,39,WeatherCatV1.23B16,2013-11-27 20:38:00,
2013-11-27 15:43:00,21.5,11.2,30.11,ENE,71,1.0,5.0,64,0.00,,,0.00,37,WeatherCatV1.23B16,2013-11-27 20:43:00,
2013-11-27 15:48:00,21.5,10.9,30.11,SW,223,3.0,11.0,63,0.00,,,0.00,28,WeatherCatV1.23B16,2013-11-27 20:48:00,
2013-11-27 15:53:00,21.5,11.2,30.11,SW,214,0.0,5.0,64,0.00,,,0.00,16,WeatherCatV1.23B16,2013-11-27 20:53:00,
2013-11-27 15:58:00,21.4,11.1,30.11,SW,232,1.0,4.0,64,0.00,,,0.00,19,WeatherCatV1.23B16,2013-11-27 20:58:00,
2013-11-27 16:03:00,21.3,11.1,30.12,WSW,252,4.0,5.0,64,0.00,,,0.00,19,WeatherCatV1.23B16,2013-11-27 21:03:00,
2013-11-27 16:08:00,21.2,10.9,30.12,NW,308,0.0,4.0,64,0.00,,,0.00,18,WeatherCatV1.23B16,2013-11-27 21:08:00,
2013-11-27 16:13:00,21.2,10.9,30.12,SW,227,1.0,7.0,64,0.00,,,0.00,12,WeatherCatV1.23B16,2013-11-27 21:13:00,
2013-11-27 16:18:00,21.0,10.8,30.12,WSW,257,0.0,5.0,64,0.00,,,0.00,11,WeatherCatV1.23B16,2013-11-27 21:18:00,
2013-11-27 16:23:00,20.9,10.7,30.12,NNE,12,0.0,5.0,64,0.00,,,0.00,11,WeatherCatV1.23B16,2013-11-27 21:23:00,
2013-11-27 16:28:00,20.8,10.6,30.12,SSW,193,3.0,5.0,64,0.00,,,0.00,9,WeatherCatV1.23B16,2013-11-27 21:28:00,
2013-11-27 16:33:00,20.7,10.5,30.12,WNW,296,0.0,1.0,64,0.00,,,0.00,9,WeatherCatV1.23B16,2013-11-27 21:33:00,
2013-11-27 16:38:00,20.6,10.4,30.12,SSE,153,0.0,0.0,64,0.00,,,0.00,7,WeatherCatV1.23B16,2013-11-27 21:38:00,
2013-11-27 16:43:00,20.5,10.6,30.13,SW,233,0.0,2.0,65,0.00,,,0.00,7,WeatherCatV1.23B16,2013-11-27 21:43:00,
2013-11-27 16:48:00,20.4,10.5,30.13,NE,35,0.0,0.0,65,0.00,,,0.00,0,WeatherCatV1.23B16,2013-11-27 21:48:00,
2013-11-27 16:53:00,20.3,10.8,30.13,SW,225,3.0,6.0,66,0.00,,,0.00,0,WeatherCatV1.23B16,2013-11-27 21:53:00,
2013-11-27 16:58:00,20.3,10.4,30.14,NNW,328,0.0,3.0,65,0.00,,,0.00,0,WeatherCatV1.23B16,2013-11-27 21:58:00,
2013-11-27 17:03:00,20.2,10.4,30.14,SW,223,2.0,2.0,65,0.00,,,0.00,0,WeatherCatV1.23B16,2013-11-27 22:03:00,
2013-11-27 17:08:00,20.0,10.5,30.14,North,350,0.0,0.0,66,0.00,,,0.00,0,WeatherCatV1.23B16,2013-11-27 22:08:00,
2013-11-27 17:13:00,19.9,10.4,30.14,North,0,0.0,1.0,66,0.00,,,0.00,0,WeatherCatV1.23B16,2013-11-27 22:13:00,
2013-11-27 17:18:00,19.7,10.2,30.14,SW,234,0.0,1.0,66,0.00,,,0.00,0,WeatherCatV1.23B16,2013-11-27 22:18:00,
2013-11-27 17:23:00,19.7,10.6,30.15,NNE,19,0.0,3.0,67,0.00,,,0.00,0,WeatherCatV1.23B16,2013-11-27 22:23:00,
2013-11-27 17:28:00,19.7,10.6,30.15,SW,222,4.0,5.0,67,0.00,,,0.00,0,WeatherCatV1.23B16,2013-11-27 22:28:00,
2013-11-27 17:33:00,19.7,10.9,30.15,WSW,237,0.0,3.0,68,0.00,,,0.00,0,WeatherCatV1.23B16,2013-11-27 22:33:00,
2013-11-27 17:38:00,19.7,10.9,30.16,WSW,238,0.0,6.0,68,0.00,,,0.00,0,WeatherCatV1.23B16,2013-11-27 22:38:00,
2013-11-27 17:43:00,19.7,10.9,30.16,WSW,242,3.0,3.0,68,0.00,,,0.00,0,WeatherCatV1.23B16,2013-11-27 22:43:00,
2013-11-27 17:48:00,19.6,10.8,30.16,WSW,239,0.0,0.0,68,0.00,,,0.00,0,WeatherCatV1.23B16,2013-11-27 22:48:00,
2013-11-27 17:53:00,19.5,10.7,30.16,WSW,254,0.0,5.0,68,0.00,,,0.00,0,WeatherCatV1.23B16,2013-11-27 22:53:00,
2013-11-27 17:58:00,19.4,10.6,30.16,WNW,290,0.0,0.0,68,0.00,,,0.00,0,WeatherCatV1.23B16,2013-11-27 22:58:00,
2013-11-27 18:03:00,19.4,10.6,30.16,SW,215,2.0,5.0,68,0.00,,,0.00,0,WeatherCatV1.23B16,2013-11-27 23:03:00,
2013-11-27 18:08:00,19.3,10.8,30.17,ENE,64,0.0,4.0,69,0.00,,,0.00,0,WeatherCatV1.23B16,2013-11-27 23:08:00,
2013-11-27 18:13:00,19.3,10.8,30.17,WNW,290,2.0,2.0,69,0.00,,,0.00,0,WeatherCatV1.23B16,2013-11-27 23:13:00,
2013-11-27 18:18:00,19.2,10.7,30.17,SW,225,0.0,5.0,69,0.00,,,0.00,0,WeatherCatV1.23B16,2013-11-27 23:18:00,
2013-11-27 18:23:00,19.1,10.6,30.17,West,263,0.0,2.0,69,0.00,,,0.00,0,WeatherCatV1.23B16,2013-11-27 23:23:00,
2013-11-27 18:28:00,19.0,10.5,30.17,SW,235,3.0,4.0,69,0.00,,,0.00,0,WeatherCatV1.23B16,2013-11-27 23:28:00,
2013-11-27 18:33:00,19.0,10.5,30.17,SW,219,2.0,3.0,69,0.00,,,0.00,0,WeatherCatV1.23B16,2013-11-27 23:33:00,
2013-11-27 18:38:00,18.9,10.4,30.17,West,265,0.0,4.0,69,0.00,,,0.00,0,WeatherCatV1.23B16,2013-11-27 23:38:00,
2013-11-27 18:43:00,18.8,10.3,30.17,West,269,4.0,4.0,69,0.00,,,0.00,0,WeatherCatV1.23B16,2013-11-27 23:43:00,
2013-11-27 18:48:00,18.6,10.1,30.17,NE,36,0.0,5.0,69,0.00,,,0.00,0,WeatherCatV1.23B16,2013-11-27 23:48:00,
2013-11-27 18:53:00,18.6,10.1,30.17,SW,226,5.0,8.0,69,0.00,,,0.00,0,WeatherCatV1.23B16,2013-11-27 23:53:00,
2013-11-27 18:58:00,18.4,10.0,30.17,SW,217,3.0,6.0,69,0.00,,,0.00,0,WeatherCatV1.23B16,2013-11-27 23:58:00,
2013-11-27 19:03:00,18.3,9.9,30.18,SW,232,0.0,6.0,69,0.00,,,0.00,0,WeatherCatV1.23B16,2013-11-28 00:03:00,
2013-11-27 19:08:00,18.1,9.7,30.18,West,265,0.0,2.0,69,0.00,,,0.00,0,WeatherCatV1.23B16,2013-11-28 00:08:00,
2013-11-27 19:13:00,18.0,9.9,30.18,NW,305,2.0,2.0,70,0.00,,,0.00,0,WeatherCatV1.23B16,2013-11-28 00:13:00,
2013-11-27 19:18:00,17.8,9.7,30.18,SW,234,1.0,1.0,70,0.00,,,0.00,0,WeatherCatV1.23B16,2013-11-28 00:18:00,
2013-11-27 19:23:00,17.7,9.6,30.18,SW,229,4.0,5.0,70,0.00,,,0.00,0,WeatherCatV1.23B16,2013-11-28 00:23:00,
2013-11-27 19:28:00,17.6,9.8,30.18,NW,317,4.0,7.0,71,0.00,,,0.00,0,WeatherCatV1.23B16,2013-11-28 00:28:00,
2013-11-27 19:33:00,17.6,9.8,30.18,SW,223,1.0,4.0,71,0.00,,,0.00,0,WeatherCatV1.23B16,2013-11-28 00:33:00,
2013-11-27 19:38:00,17.6,9.8,30.18,WSW,244,0.0,5.0,71,0.00,,,0.00,0,WeatherCatV1.23B16,2013-11-28 00:38:00,
2013-11-27 19:43:00,17.4,9.6,30.18,SW,233,1.0,3.0,71,0.00,,,0.00,0,WeatherCatV1.23B16,2013-11-28 00:43:00,
2013-11-27 19:48:00,17.3,9.9,30.18,SW,225,0.0,6.0,72,0.00,,,0.00,0,WeatherCatV1.23B16,2013-11-28 00:48:00,
2013-11-27 19:53:00,17.3,9.9,30.19,WSW,254,3.0,4.0,72,0.00,,,0.00,0,WeatherCatV1.23B16,2013-11-28 00:53:00,
2013-11-27 19:58:00,17.2,9.8,30.19,West,278,0.0,4.0,72,0.00,,,0.00,0,WeatherCatV1.23B16,2013-11-28 00:58:00,
2013-11-27 20:03:00,17.1,9.7,30.19,WSW,252,0.0,0.0,72,0.00,,,0.00,0,WeatherCatV1.23B16,2013-11-28 01:03:00,
2013-11-27 20:08:00,17.0,9.9,30.19,SW,225,0.0,4.0,73,0.00,,,0.00,0,WeatherCatV1.23B16,2013-11-28 01:08:00,
2013-11-27 20:13:00,16.9,9.8,30.19,NW,315,0.0,0.0,73,0.00,,,0.00,0,WeatherCatV1.23B16,2013-11-28 01:13:00,
2013-11-27 20:18:00,16.8,9.7,30.19,NW,315,0.0,0.0,73,0.00,,,0.00,0,WeatherCatV1.23B16,2013-11-28 01:18:00,
2013-11-27 20:23:00,16.6,9.5,30.19,NW,315,0.0,1.0,73,0.00,,,0.00,0,WeatherCatV1.23B16,2013-11-28 01:23:00,
2013-11-27 20:28:00,16.3,9.2,30.19,NW,315,2.0,2.0,73,0.00,,,0.00,0,WeatherCatV1.23B16,2013-11-28 01:28:00,
2013-11-27 20:34:00,16.1,9.3,30.19,SW,234,0.0,2.0,74,0.00,,,0.00,0,WeatherCatV1.23B16,2013-11-28 01:34:00,
2013-11-27 20:39:00,15.9,9.1,30.19,SW,224,0.0,2.0,74,0.00,,,0.00,0,WeatherCatV1.23B16,2013-11-28 01:39:00,
2013-11-27 20:44:00,15.7,9.2,30.19,WSW,242,0.0,3.0,75,0.00,,,0.00,0,WeatherCatV1.23B16,2013-11-28 01:44:00,
2013-11-27 20:49:00,15.7,9.2,30.19,NW,317,0.0,2.0,75,0.00,,,0.00,0,WeatherCatV1.23B16,2013-11-28 01:49:00,
2013-11-27 20:54:00,15.6,9.1,30.20,SSW,207,0.0,0.0,75,0.00,,,0.00,0,WeatherCatV1.23B16,2013-11-28 01:54:00,
2013-11-27 20:59:00,15.5,9.0,30.21,SSW,207,0.0,0.0,75,0.00,,,0.00,0,WeatherCatV1.23B16,2013-11-28 01:59:00,
2013-11-27 21:04:00,15.4,8.9,30.21,SSW,207,0.0,0.0,75,0.00,,,0.00,0,WeatherCatV1.23B16,2013-11-28 02:04:00,
2013-11-27 21:09:00,15.3,8.8,30.21,SSW,207,0.0,0.0,75,0.00,,,0.00,0,WeatherCatV1.23B16,2013-11-28 02:09:00,
2013-11-27 21:14:00,15.2,8.7,30.21,SSW,207,0.0,0.0,75,0.00,,,0.00,0,WeatherCatV1.23B16,2013-11-28 02:14:00,
2013-11-27 21:19:00,15.0,8.5,30.21,SSW,207,0.0,2.0,75,0.00,,,0.00,0,WeatherCatV1.23B16,2013-11-28 02:19:00,
2013-11-27 21:24:00,14.9,8.4,30.21,SSW,207,0.0,0.0,75,0.00,,,0.00,0,WeatherCatV1.23B16,2013-11-28 02:24:00,
2013-11-27 21:29:00,14.7,8.2,30.21,SSW,207,0.0,0.0,75,0.00,,,0.00,0,WeatherCatV1.23B16,2013-11-28 02:29:00,
2013-11-27 21:34:00,14.5,8.1,30.21,SSW,207,0.0,0.0,75,0.00,,,0.00,0,WeatherCatV1.23B16,2013-11-28 02:34:00,
2013-11-27 21:39:00,14.1,7.7,30.21,SSW,207,0.0,0.0,75,0.00,,,0.00,0,WeatherCatV1.23B16,2013-11-28 02:39:00,
2013-11-27 21:44:00,13.9,7.8,30.21,SSW,207,0.0,0.0,76,0.00,,,0.00,0,WeatherCatV1.23B16,2013-11-28 02:44:00,
2013-11-27 21:49:00,13.8,7.9,30.21,SSW,207,0.0,0.0,77,0.00,,,0.00,0,WeatherCatV1.23B16,2013-11-28 02:49:00,
2013-11-27 21:54:00,13.8,7.9,30.21,SSW,207,0.0,0.0,77,0.00,,,0.00,0,WeatherCatV1.23B16,2013-11-28 02:54:00,
2013-11-27 21:59:00,13.8,7.9,30.21,SSW,207,0.0,0.0,77,0.00,,,0.00,0,WeatherCatV1.23B16,2013-11-28 02:59:00,
2013-11-27 22:04:00,14.0,8.1,30.21,SSW,208,0.0,0.0,77,0.00,,,0.00,0,WeatherCatV1.23B16,2013-11-28 03:04:00,
2013-11-27 22:09:00,14.0,8.1,30.21,SSW,208,0.0,0.0,77,0.00,,,0.00,0,WeatherCatV1.23B16,2013-11-28 03:09:00,
2013-11-27 22:14:00,14.1,8.2,30.21,SSW,208,0.0,0.0,77,0.00,,,0.00,0,WeatherCatV1.23B16,2013-11-28 03:14:00,
2013-11-27 22:19:00,14.1,8.2,30.21,SSW,208,0.0,0.0,77,0.00,,,0.00,0,WeatherCatV1.23B16,2013-11-28 03:19:00,
2013-11-27 22:24:00,14.1,8.2,30.21,SSW,209,0.0,1.0,77,0.00,,,0.00,0,WeatherCatV1.23B16,2013-11-28 03:24:00,
2013-11-27 22:29:00,14.3,8.4,30.21,SSW,209,0.0,0.0,77,0.00,,,0.00,0,WeatherCatV1.23B16,2013-11-28 03:29:00,
2013-11-27 22:34:00,14.4,8.5,30.21,SSW,209,0.0,0.0,77,0.00,,,0.00,0,WeatherCatV1.23B16,2013-11-28 03:34:00,
2013-11-27 22:39:00,14.4,8.5,30.21,SSW,209,0.0,0.0,77,0.00,,,0.00,0,WeatherCatV1.23B16,2013-11-28 03:39:00,
2013-11-27 22:44:00,14.3,8.4,30.21,SSW,209,0.0,0.0,77,0.00,,,0.00,0,WeatherCatV1.23B16,2013-11-28 03:44:00,
2013-11-27 22:49:00,14.2,8.3,30.21,SSW,211,1.0,1.0,77,0.00,,,0.00,0,WeatherCatV1.23B16,2013-11-28 03:49:00,
2013-11-27 22:54:00,13.9,8.1,30.21,SSW,211,0.0,0.0,77,0.00,,,0.00,0,WeatherCatV1.23B16,2013-11-28 03:54:00,
2013-11-27 22:59:00,13.6,7.8,30.21,SSW,211,0.0,0.0,77,0.00,,,0.00,0,WeatherCatV1.23B16,2013-11-28 03:59:00,
2013-11-27 23:04:00,13.2,7.4,30.21,SSW,211,0.0,0.0,77,0.00,,,0.00,0,WeatherCatV1.23B16,2013-11-28 04:04:00,
2013-11-27 23:09:00,12.8,7.0,30.22,SSW,211,0.0,0.0,77,0.00,,,0.00,0,WeatherCatV1.23B16,2013-11-28 04:09:00,
2013-11-27 23:14:00,12.3,6.8,30.22,SSW,211,0.0,0.0,78,0.00,,,0.00,0,WeatherCatV1.23B16,2013-11-28 04:14:00,
2013-11-27 23:19:00,11.8,6.3,30.22,SSW,211,0.0,0.0,78,0.00,,,0.00,0,WeatherCatV1.23B16,2013-11-28 04:19:00,
2013-11-27 23:24:00,11.4,6.2,30.22,SSW,211,0.0,0.0,79,0.00,,,0.00,0,WeatherCatV1.23B16,2013-11-28 04:24:00,
2013-11-27 23:29:00,11.1,6.2,30.23,SSW,211,0.0,0.0,80,0.00,,,0.00,0,WeatherCatV1.23B16,2013-11-28 04:29:00,
2013-11-27 23:37:00,11.1,6.7,30.23,SSW,211,0.0,0.0,82,0.00,,,0.00,0,WeatherCatV1.23B16,2013-11-28 04:37:00,
2013-11-27 23:42:00,11.4,7.3,30.22,SW,217,2.0,3.0,83,0.00,,,0.00,0,WeatherCatV1.23B16,2013-11-28 04:42:00,
2013-11-27 23:47:00,12.2,8.3,30.23,SW,217,1.0,2.0,84,0.00,,,0.00,0,WeatherCatV1.23B16,2013-11-28 04:47:00,
2013-11-27 23:52:00,12.8,8.6,30.23,WSW,254,2.0,4.0,83,0.00,,,0.00,0,WeatherCatV1.23B16,2013-11-28 04:52:00,
2013-11-27 23:57:00,13.3,8.9,30.23,SSW,202,2.0,4.0,82,0.00,,,0.00,0,WeatherCatV1.23B16,2013-11-28 04:57:00,